sensor_id;sensor_type;location;lat;lon;timestamp;P1;durP1;ratioP1;P2;durP2;ratioP2
66546;SDS011;53400;50.364;14.874;2023-12-29T00:00:29;7.60;;;3.40;;
66546;SDS011;53400;50.364;14.874;2023-12-29T00:03:19;8.88;;;3.97;;
66546;SDS011;53400;50.364;14.874;2023-12-29T00:05:48;7.45;;;3.63;;
66546;SDS011;53400;50.364;14.874;2023-12-29T00:08:16;8.40;;;3.97;;
66546;SDS011;53400;50.364;14.874;2023-12-29T00:10:44;8.68;;;4.25;;
66546;SDS011;53400;50.364;14.874;2023-12-29T00:13:11;7.93;;;4.18;;
66546;SDS011;53400;50.364;14.874;2023-12-29T00:15:37;9.43;;;4.93;;
66546;SDS011;53400;50.364;14.874;2023-12-29T00:18:03;8.93;;;4.22;;
66546;SDS011;53400;50.364;14.874;2023-12-29T00:20:29;7.45;;;3.90;;
66546;SDS011;53400;50.364;14.874;2023-12-29T00:22:56;7.57;;;4.22;;
66546;SDS011;53400;50.364;14.874;2023-12-29T00:25:25;8.20;;;4.32;;
66546;SDS011;53400;50.364;14.874;2023-12-29T00:27:51;7.22;;;4.00;;
66546;SDS011;53400;50.364;14.874;2023-12-29T00:30:17;11.68;;;5.93;;
66546;SDS011;53400;50.364;14.874;2023-12-29T00:32:45;8.57;;;4.22;;
66546;SDS011;53400;50.364;14.874;2023-12-29T00:35:12;6.75;;;3.92;;
66546;SDS011;53400;50.364;14.874;2023-12-29T00:37:39;7.05;;;3.65;;
66546;SDS011;53400;50.364;14.874;2023-12-29T00:40:06;7.50;;;3.75;;
66546;SDS011;53400;50.364;14.874;2023-12-29T00:42:37;8.10;;;3.80;;
66546;SDS011;53400;50.364;14.874;2023-12-29T00:45:04;6.85;;;3.63;;
66546;SDS011;53400;50.364;14.874;2023-12-29T00:47:31;8.90;;;4.30;;
66546;SDS011;53400;50.364;14.874;2023-12-29T00:49:57;7.30;;;3.78;;
66546;SDS011;53400;50.364;14.874;2023-12-29T00:52:23;7.47;;;3.78;;
66546;SDS011;53400;50.364;14.874;2023-12-29T00:54:52;8.70;;;4.13;;
66546;SDS011;53400;50.364;14.874;2023-12-29T00:57:18;8.25;;;4.30;;
66546;SDS011;53400;50.364;14.874;2023-12-29T00:59:46;8.13;;;3.88;;
66546;SDS011;53400;50.364;14.874;2023-12-29T01:02:13;9.60;;;3.85;;
66546;SDS011;53400;50.364;14.874;2023-12-29T01:04:39;8.02;;;4.32;;
66546;SDS011;53400;50.364;14.874;2023-12-29T01:07:05;7.53;;;4.15;;
66546;SDS011;53400;50.364;14.874;2023-12-29T01:09:31;8.65;;;4.47;;
66546;SDS011;53400;50.364;14.874;2023-12-29T01:11:57;7.32;;;4.32;;
66546;SDS011;53400;50.364;14.874;2023-12-29T01:14:23;7.97;;;5.07;;
66546;SDS011;53400;50.364;14.874;2023-12-29T01:16:51;9.00;;;4.60;;
66546;SDS011;53400;50.364;14.874;2023-12-29T01:19:17;9.00;;;4.13;;
66546;SDS011;53400;50.364;14.874;2023-12-29T01:21:43;7.68;;;4.13;;
66546;SDS011;53400;50.364;14.874;2023-12-29T01:24:10;8.52;;;4.15;;
66546;SDS011;53400;50.364;14.874;2023-12-29T01:26:36;8.15;;;4.22;;
66546;SDS011;53400;50.364;14.874;2023-12-29T01:29:03;9.40;;;4.97;;
66546;SDS011;53400;50.364;14.874;2023-12-29T01:31:30;7.63;;;4.20;;
66546;SDS011;53400;50.364;14.874;2023-12-29T01:34:01;8.57;;;4.30;;
66546;SDS011;53400;50.364;14.874;2023-12-29T01:36:27;7.07;;;3.92;;
66546;SDS011;53400;50.364;14.874;2023-12-29T01:38:53;8.18;;;4.32;;
66546;SDS011;53400;50.364;14.874;2023-12-29T01:41:19;8.52;;;4.47;;
66546;SDS011;53400;50.364;14.874;2023-12-29T01:46:45;8.63;;;4.40;;
66546;SDS011;53400;50.364;14.874;2023-12-29T01:49:13;8.85;;;4.13;;
66546;SDS011;53400;50.364;14.874;2023-12-29T01:51:41;7.90;;;3.92;;
66546;SDS011;53400;50.364;14.874;2023-12-29T01:54:08;8.10;;;4.15;;
66546;SDS011;53400;50.364;14.874;2023-12-29T01:56:36;7.28;;;3.63;;
66546;SDS011;53400;50.364;14.874;2023-12-29T01:59:02;7.93;;;4.30;;
66546;SDS011;53400;50.364;14.874;2023-12-29T02:01:29;8.45;;;4.22;;
66546;SDS011;53400;50.364;14.874;2023-12-29T02:03:55;9.38;;;4.45;;
66546;SDS011;53400;50.364;14.874;2023-12-29T02:06:23;7.57;;;3.80;;
66546;SDS011;53400;50.364;14.874;2023-12-29T02:08:50;7.68;;;4.03;;
66546;SDS011;53400;50.364;14.874;2023-12-29T02:11:17;8.63;;;5.05;;
66546;SDS011;53400;50.364;14.874;2023-12-29T02:13:43;8.52;;;4.22;;
66546;SDS011;53400;50.364;14.874;2023-12-29T02:16:18;8.00;;;4.32;;
66546;SDS011;53400;50.364;14.874;2023-12-29T02:18:55;7.93;;;4.63;;
66546;SDS011;53400;50.364;14.874;2023-12-29T02:21:27;9.32;;;4.63;;
66546;SDS011;53400;50.364;14.874;2023-12-29T02:23:53;7.45;;;4.13;;
66546;SDS011;53400;50.364;14.874;2023-12-29T02:26:22;9.68;;;5.78;;
66546;SDS011;53400;50.364;14.874;2023-12-29T02:28:59;10.75;;;5.45;;
66546;SDS011;53400;50.364;14.874;2023-12-29T02:31:28;13.13;;;6.47;;
66546;SDS011;53400;50.364;14.874;2023-12-29T02:34:01;10.00;;;5.78;;
66546;SDS011;53400;50.364;14.874;2023-12-29T02:36:33;9.70;;;5.25;;
66546;SDS011;53400;50.364;14.874;2023-12-29T02:38:59;11.10;;;5.82;;
66546;SDS011;53400;50.364;14.874;2023-12-29T02:41:27;8.40;;;4.88;;
66546;SDS011;53400;50.364;14.874;2023-12-29T02:43:53;7.35;;;4.00;;
66546;SDS011;53400;50.364;14.874;2023-12-29T02:46:21;7.20;;;3.65;;
66546;SDS011;53400;50.364;14.874;2023-12-29T02:48:47;8.75;;;3.78;;
66546;SDS011;53400;50.364;14.874;2023-12-29T02:51:13;7.68;;;3.60;;
66546;SDS011;53400;50.364;14.874;2023-12-29T02:53:42;7.50;;;3.30;;
66546;SDS011;53400;50.364;14.874;2023-12-29T02:56:15;7.30;;;3.60;;
66546;SDS011;53400;50.364;14.874;2023-12-29T02:58:42;6.97;;;3.63;;
66546;SDS011;53400;50.364;14.874;2023-12-29T03:01:11;7.25;;;3.70;;
66546;SDS011;53400;50.364;14.874;2023-12-29T03:03:43;6.50;;;3.25;;
66546;SDS011;53400;50.364;14.874;2023-12-29T03:06:09;6.35;;;3.03;;
66546;SDS011;53400;50.364;14.874;2023-12-29T03:08:35;7.25;;;3.65;;
66546;SDS011;53400;50.364;14.874;2023-12-29T03:11:01;6.18;;;3.30;;
66546;SDS011;53400;50.364;14.874;2023-12-29T03:13:27;6.40;;;3.40;;
66546;SDS011;53400;50.364;14.874;2023-12-29T03:16:01;5.78;;;3.28;;
66546;SDS011;53400;50.364;14.874;2023-12-29T03:18:27;7.53;;;3.58;;
66546;SDS011;53400;50.364;14.874;2023-12-29T03:20:53;5.65;;;2.97;;
66546;SDS011;53400;50.364;14.874;2023-12-29T03:23:19;7.18;;;3.80;;
66546;SDS011;53400;50.364;14.874;2023-12-29T03:25:45;5.82;;;3.08;;
66546;SDS011;53400;50.364;14.874;2023-12-29T03:28:11;7.68;;;3.70;;
66546;SDS011;53400;50.364;14.874;2023-12-29T03:30:37;7.65;;;3.05;;
66546;SDS011;53400;50.364;14.874;2023-12-29T03:33:05;6.63;;;3.53;;
66546;SDS011;53400;50.364;14.874;2023-12-29T03:35:36;7.70;;;4.30;;
66546;SDS011;53400;50.364;14.874;2023-12-29T03:38:03;7.20;;;3.55;;
66546;SDS011;53400;50.364;14.874;2023-12-29T03:40:29;7.75;;;3.80;;
66546;SDS011;53400;50.364;14.874;2023-12-29T03:42:55;6.43;;;3.15;;
66546;SDS011;53400;50.364;14.874;2023-12-29T03:45:21;6.30;;;3.28;;
66546;SDS011;53400;50.364;14.874;2023-12-29T03:47:47;6.15;;;3.03;;
66546;SDS011;53400;50.364;14.874;2023-12-29T03:50:15;7.40;;;3.55;;
66546;SDS011;53400;50.364;14.874;2023-12-29T03:52:41;6.95;;;3.42;;
66546;SDS011;53400;50.364;14.874;2023-12-29T03:55:07;6.28;;;3.10;;
66546;SDS011;53400;50.364;14.874;2023-12-29T03:57:33;7.85;;;3.10;;
66546;SDS011;53400;50.364;14.874;2023-12-29T03:59:59;6.28;;;3.60;;
66546;SDS011;53400;50.364;14.874;2023-12-29T04:02:28;7.03;;;3.22;;
66546;SDS011;53400;50.364;14.874;2023-12-29T04:05:05;6.80;;;3.50;;
66546;SDS011;53400;50.364;14.874;2023-12-29T04:07:34;7.15;;;3.40;;
66546;SDS011;53400;50.364;14.874;2023-12-29T04:12:44;6.35;;;3.50;;
66546;SDS011;53400;50.364;14.874;2023-12-29T04:15:11;7.28;;;3.35;;
66546;SDS011;53400;50.364;14.874;2023-12-29T04:17:37;6.60;;;3.50;;
66546;SDS011;53400;50.364;14.874;2023-12-29T04:20:04;5.82;;;3.20;;
66546;SDS011;53400;50.364;14.874;2023-12-29T04:22:31;5.72;;;3.08;;
66546;SDS011;53400;50.364;14.874;2023-12-29T04:24:59;5.97;;;3.13;;
66546;SDS011;53400;50.364;14.874;2023-12-29T04:27:24;8.25;;;3.92;;
66546;SDS011;53400;50.364;14.874;2023-12-29T04:29:54;7.38;;;3.38;;
66546;SDS011;53400;50.364;14.874;2023-12-29T04:32:25;6.85;;;3.80;;
66546;SDS011;53400;50.364;14.874;2023-12-29T04:34:51;5.95;;;3.15;;
66546;SDS011;53400;50.364;14.874;2023-12-29T04:37:17;6.05;;;2.90;;
66546;SDS011;53400;50.364;14.874;2023-12-29T04:39:47;7.05;;;3.10;;
66546;SDS011;53400;50.364;14.874;2023-12-29T04:42:14;6.70;;;3.15;;
66546;SDS011;53400;50.364;14.874;2023-12-29T04:44:40;6.07;;;3.53;;
66546;SDS011;53400;50.364;14.874;2023-12-29T04:47:06;4.80;;;2.67;;
66546;SDS011;53400;50.364;14.874;2023-12-29T04:49:33;5.85;;;3.05;;
66546;SDS011;53400;50.364;14.874;2023-12-29T04:52:02;5.55;;;2.90;;
66546;SDS011;53400;50.364;14.874;2023-12-29T04:54:29;6.57;;;4.00;;
66546;SDS011;53400;50.364;14.874;2023-12-29T04:56:54;6.65;;;3.22;;
66546;SDS011;53400;50.364;14.874;2023-12-29T04:59:24;6.72;;;3.05;;
66546;SDS011;53400;50.364;14.874;2023-12-29T05:01:56;6.65;;;3.05;;
66546;SDS011;53400;50.364;14.874;2023-12-29T05:04:22;7.20;;;3.25;;
66546;SDS011;53400;50.364;14.874;2023-12-29T05:06:48;7.20;;;3.38;;
66546;SDS011;53400;50.364;14.874;2023-12-29T05:09:15;6.43;;;2.88;;
66546;SDS011;53400;50.364;14.874;2023-12-29T05:11:41;5.50;;;2.60;;
66546;SDS011;53400;50.364;14.874;2023-12-29T05:14:07;8.60;;;3.30;;
66546;SDS011;53400;50.364;14.874;2023-12-29T05:16:35;4.65;;;2.58;;
66546;SDS011;53400;50.364;14.874;2023-12-29T05:19:04;5.22;;;2.65;;
66546;SDS011;53400;50.364;14.874;2023-12-29T05:21:30;5.95;;;2.88;;
66546;SDS011;53400;50.364;14.874;2023-12-29T05:23:56;5.28;;;2.60;;
66546;SDS011;53400;50.364;14.874;2023-12-29T05:26:22;6.70;;;2.42;;
66546;SDS011;53400;50.364;14.874;2023-12-29T05:28:49;6.75;;;2.80;;
66546;SDS011;53400;50.364;14.874;2023-12-29T05:31:15;6.22;;;2.60;;
66546;SDS011;53400;50.364;14.874;2023-12-29T05:33:45;4.95;;;2.33;;
66546;SDS011;53400;50.364;14.874;2023-12-29T05:36:11;6.53;;;2.83;;
66546;SDS011;53400;50.364;14.874;2023-12-29T05:38:39;5.90;;;2.53;;
66546;SDS011;53400;50.364;14.874;2023-12-29T05:41:07;5.00;;;2.53;;
66546;SDS011;53400;50.364;14.874;2023-12-29T05:43:33;5.90;;;2.60;;
66546;SDS011;53400;50.364;14.874;2023-12-29T05:46:00;5.78;;;2.45;;
66546;SDS011;53400;50.364;14.874;2023-12-29T05:48:28;5.43;;;2.80;;
66546;SDS011;53400;50.364;14.874;2023-12-29T05:50:57;4.97;;;2.40;;
66546;SDS011;53400;50.364;14.874;2023-12-29T05:53:24;5.45;;;2.55;;
66546;SDS011;53400;50.364;14.874;2023-12-29T05:55:50;5.68;;;2.60;;
66546;SDS011;53400;50.364;14.874;2023-12-29T05:58:16;5.30;;;2.55;;
66546;SDS011;53400;50.364;14.874;2023-12-29T06:00:42;5.03;;;2.53;;
66546;SDS011;53400;50.364;14.874;2023-12-29T06:03:10;5.13;;;2.50;;
66546;SDS011;53400;50.364;14.874;2023-12-29T06:05:36;6.10;;;2.40;;
66546;SDS011;53400;50.364;14.874;2023-12-29T06:08:07;5.68;;;2.50;;
66546;SDS011;53400;50.364;14.874;2023-12-29T06:10:33;6.13;;;2.67;;
66546;SDS011;53400;50.364;14.874;2023-12-29T06:13:01;5.78;;;2.50;;
66546;SDS011;53400;50.364;14.874;2023-12-29T06:15:37;5.15;;;2.65;;
66546;SDS011;53400;50.364;14.874;2023-12-29T06:18:21;5.15;;;2.42;;
66546;SDS011;53400;50.364;14.874;2023-12-29T06:20:47;5.25;;;2.42;;
66546;SDS011;53400;50.364;14.874;2023-12-29T06:23:15;5.47;;;2.55;;
66546;SDS011;53400;50.364;14.874;2023-12-29T06:25:42;4.35;;;1.83;;
66546;SDS011;53400;50.364;14.874;2023-12-29T06:28:08;5.07;;;2.10;;
66546;SDS011;53400;50.364;14.874;2023-12-29T06:30:38;4.63;;;2.20;;
66546;SDS011;53400;50.364;14.874;2023-12-29T06:33:04;4.70;;;2.10;;
66546;SDS011;53400;50.364;14.874;2023-12-29T06:35:48;5.60;;;2.60;;
66546;SDS011;53400;50.364;14.874;2023-12-29T06:38:17;5.40;;;2.20;;
66546;SDS011;53400;50.364;14.874;2023-12-29T06:40:43;4.82;;;2.70;;
66546;SDS011;53400;50.364;14.874;2023-12-29T06:43:13;5.13;;;2.67;;
66546;SDS011;53400;50.364;14.874;2023-12-29T06:45:39;5.20;;;2.38;;
66546;SDS011;53400;50.364;14.874;2023-12-29T06:48:05;5.10;;;2.42;;
66546;SDS011;53400;50.364;14.874;2023-12-29T06:50:32;7.05;;;2.58;;
66546;SDS011;53400;50.364;14.874;2023-12-29T06:53:01;5.03;;;2.38;;
66546;SDS011;53400;50.364;14.874;2023-12-29T06:55:29;5.90;;;2.20;;
66546;SDS011;53400;50.364;14.874;2023-12-29T06:57:55;4.88;;;2.30;;
66546;SDS011;53400;50.364;14.874;2023-12-29T07:00:21;5.47;;;2.22;;
66546;SDS011;53400;50.364;14.874;2023-12-29T07:02:48;4.07;;;1.75;;
66546;SDS011;53400;50.364;14.874;2023-12-29T07:05:17;5.10;;;2.25;;
66546;SDS011;53400;50.364;14.874;2023-12-29T07:07:44;4.82;;;2.17;;
66546;SDS011;53400;50.364;14.874;2023-12-29T07:10:12;6.07;;;2.30;;
66546;SDS011;53400;50.364;14.874;2023-12-29T07:12:42;5.00;;;2.10;;
66546;SDS011;53400;50.364;14.874;2023-12-29T07:15:09;5.25;;;2.30;;
66546;SDS011;53400;50.364;14.874;2023-12-29T07:17:35;5.05;;;2.00;;
66546;SDS011;53400;50.364;14.874;2023-12-29T07:20:01;5.15;;;2.20;;
66546;SDS011;53400;50.364;14.874;2023-12-29T07:22:31;4.78;;;2.17;;
66546;SDS011;53400;50.364;14.874;2023-12-29T07:25:07;5.72;;;2.10;;
66546;SDS011;53400;50.364;14.874;2023-12-29T07:27:34;5.30;;;2.53;;
66546;SDS011;53400;50.364;14.874;2023-12-29T07:32:51;5.47;;;2.22;;
66546;SDS011;53400;50.364;14.874;2023-12-29T07:35:19;5.07;;;2.10;;
66546;SDS011;53400;50.364;14.874;2023-12-29T07:40:29;4.68;;;2.15;;
66546;SDS011;53400;50.364;14.874;2023-12-29T07:42:56;5.82;;;2.65;;
66546;SDS011;53400;50.364;14.874;2023-12-29T07:45:23;7.03;;;2.67;;
66546;SDS011;53400;50.364;14.874;2023-12-29T07:47:53;4.82;;;2.00;;
66546;SDS011;53400;50.364;14.874;2023-12-29T07:50:19;5.18;;;2.47;;
66546;SDS011;53400;50.364;14.874;2023-12-29T07:52:46;5.32;;;2.30;;
66546;SDS011;53400;50.364;14.874;2023-12-29T07:55:12;5.75;;;2.15;;
66546;SDS011;53400;50.364;14.874;2023-12-29T07:57:49;4.88;;;2.25;;
66546;SDS011;53400;50.364;14.874;2023-12-29T08:00:21;4.25;;;1.70;;
66546;SDS011;53400;50.364;14.874;2023-12-29T08:02:49;5.28;;;2.17;;
66546;SDS011;53400;50.364;14.874;2023-12-29T08:05:21;4.10;;;1.88;;
66546;SDS011;53400;50.364;14.874;2023-12-29T08:07:53;5.50;;;1.98;;
66546;SDS011;53400;50.364;14.874;2023-12-29T08:10:20;4.45;;;1.92;;
66546;SDS011;53400;50.364;14.874;2023-12-29T08:12:46;4.80;;;2.40;;
66546;SDS011;53400;50.364;14.874;2023-12-29T08:15:12;4.53;;;2.08;;
66546;SDS011;53400;50.364;14.874;2023-12-29T08:17:50;4.30;;;2.20;;
66546;SDS011;53400;50.364;14.874;2023-12-29T08:20:16;5.00;;;2.00;;
66546;SDS011;53400;50.364;14.874;2023-12-29T08:22:42;5.50;;;2.33;;
66546;SDS011;53400;50.364;14.874;2023-12-29T08:25:10;5.20;;;2.20;;
66546;SDS011;53400;50.364;14.874;2023-12-29T08:27:41;4.30;;;2.00;;
66546;SDS011;53400;50.364;14.874;2023-12-29T08:30:07;5.10;;;2.33;;
66546;SDS011;53400;50.364;14.874;2023-12-29T08:32:34;4.55;;;2.22;;
66546;SDS011;53400;50.364;14.874;2023-12-29T08:35:03;4.93;;;2.17;;
66546;SDS011;53400;50.364;14.874;2023-12-29T08:37:32;6.85;;;2.45;;
66546;SDS011;53400;50.364;14.874;2023-12-29T08:39:58;5.22;;;2.20;;
66546;SDS011;53400;50.364;14.874;2023-12-29T08:42:25;4.85;;;1.92;;
66546;SDS011;53400;50.364;14.874;2023-12-29T08:44:52;4.78;;;2.30;;
66546;SDS011;53400;50.364;14.874;2023-12-29T08:47:19;4.78;;;2.25;;
66546;SDS011;53400;50.364;14.874;2023-12-29T08:49:45;6.53;;;2.85;;
66546;SDS011;53400;50.364;14.874;2023-12-29T08:52:16;4.95;;;2.40;;
66546;SDS011;53400;50.364;14.874;2023-12-29T08:54:43;5.20;;;2.65;;
66546;SDS011;53400;50.364;14.874;2023-12-29T08:57:11;4.82;;;2.28;;
66546;SDS011;53400;50.364;14.874;2023-12-29T08:59:37;4.93;;;2.35;;
66546;SDS011;53400;50.364;14.874;2023-12-29T09:02:04;5.07;;;2.33;;
66546;SDS011;53400;50.364;14.874;2023-12-29T09:04:34;6.00;;;2.22;;
66546;SDS011;53400;50.364;14.874;2023-12-29T09:07:01;6.13;;;2.03;;
66546;SDS011;53400;50.364;14.874;2023-12-29T09:09:33;5.25;;;2.30;;
66546;SDS011;53400;50.364;14.874;2023-12-29T09:12:00;5.03;;;2.30;;
66546;SDS011;53400;50.364;14.874;2023-12-29T09:14:31;3.30;;;1.73;;
66546;SDS011;53400;50.364;14.874;2023-12-29T09:17:00;5.82;;;2.53;;
66546;SDS011;53400;50.364;14.874;2023-12-29T09:19:26;5.57;;;2.20;;
66546;SDS011;53400;50.364;14.874;2023-12-29T09:22:02;4.88;;;2.40;;
66546;SDS011;53400;50.364;14.874;2023-12-29T09:24:43;4.53;;;2.10;;
66546;SDS011;53400;50.364;14.874;2023-12-29T09:27:09;5.57;;;2.30;;
66546;SDS011;53400;50.364;14.874;2023-12-29T09:32:32;5.15;;;2.03;;
66546;SDS011;53400;50.364;14.874;2023-12-29T09:34:58;5.10;;;2.20;;
66546;SDS011;53400;50.364;14.874;2023-12-29T09:37:46;4.90;;;1.92;;
66546;SDS011;53400;50.364;14.874;2023-12-29T09:40:31;4.07;;;1.60;;
66546;SDS011;53400;50.364;14.874;2023-12-29T09:43:03;4.03;;;1.88;;
66546;SDS011;53400;50.364;14.874;2023-12-29T09:45:36;3.47;;;1.65;;
66546;SDS011;53400;50.364;14.874;2023-12-29T09:48:15;4.97;;;2.20;;
66546;SDS011;53400;50.364;14.874;2023-12-29T09:50:42;4.88;;;2.08;;
66546;SDS011;53400;50.364;14.874;2023-12-29T09:53:11;4.57;;;2.03;;
66546;SDS011;53400;50.364;14.874;2023-12-29T09:56:07;5.85;;;2.20;;
66546;SDS011;53400;50.364;14.874;2023-12-29T09:58:34;5.13;;;2.20;;
66546;SDS011;53400;50.364;14.874;2023-12-29T10:01:14;4.95;;;2.10;;
66546;SDS011;53400;50.364;14.874;2023-12-29T10:03:46;3.20;;;1.52;;
66546;SDS011;53400;50.364;14.874;2023-12-29T10:06:16;5.13;;;2.20;;
66546;SDS011;53400;50.364;14.874;2023-12-29T10:08:55;4.57;;;2.22;;
66546;SDS011;53400;50.364;14.874;2023-12-29T10:11:31;4.90;;;2.10;;
66546;SDS011;53400;50.364;14.874;2023-12-29T10:14:02;3.88;;;1.50;;
66546;SDS011;53400;50.364;14.874;2023-12-29T10:16:35;5.70;;;1.73;;
66546;SDS011;53400;50.364;14.874;2023-12-29T10:19:35;4.97;;;2.05;;
66546;SDS011;53400;50.364;14.874;2023-12-29T10:22:06;4.55;;;1.67;;
66546;SDS011;53400;50.364;14.874;2023-12-29T10:24:43;3.25;;;1.52;;
66546;SDS011;53400;50.364;14.874;2023-12-29T10:27:18;5.80;;;2.30;;
66546;SDS011;53400;50.364;14.874;2023-12-29T10:29:44;5.15;;;2.17;;
66546;SDS011;53400;50.364;14.874;2023-12-29T10:32:10;5.20;;;1.67;;
66546;SDS011;53400;50.364;14.874;2023-12-29T10:34:39;5.72;;;2.95;;
66546;SDS011;53400;50.364;14.874;2023-12-29T10:37:07;4.85;;;2.15;;
66546;SDS011;53400;50.364;14.874;2023-12-29T10:39:38;5.10;;;2.17;;
66546;SDS011;53400;50.364;14.874;2023-12-29T10:42:23;5.68;;;2.30;;
66546;SDS011;53400;50.364;14.874;2023-12-29T10:45:03;4.03;;;1.92;;
66546;SDS011;53400;50.364;14.874;2023-12-29T10:47:32;4.90;;;2.15;;
66546;SDS011;53400;50.364;14.874;2023-12-29T10:50:23;4.53;;;2.13;;
66546;SDS011;53400;50.364;14.874;2023-12-29T10:52:52;3.83;;;1.90;;
66546;SDS011;53400;50.364;14.874;2023-12-29T10:58:08;5.40;;;2.00;;
66546;SDS011;53400;50.364;14.874;2023-12-29T11:00:40;3.85;;;1.80;;
66546;SDS011;53400;50.364;14.874;2023-12-29T11:03:06;6.15;;;2.35;;
66546;SDS011;53400;50.364;14.874;2023-12-29T11:05:33;5.05;;;2.00;;
66546;SDS011;53400;50.364;14.874;2023-12-29T11:08:00;4.68;;;1.98;;
66546;SDS011;53400;50.364;14.874;2023-12-29T11:10:26;4.30;;;1.80;;
66546;SDS011;53400;50.364;14.874;2023-12-29T11:12:55;4.53;;;2.08;;
66546;SDS011;53400;50.364;14.874;2023-12-29T11:15:23;4.75;;;2.17;;
66546;SDS011;53400;50.364;14.874;2023-12-29T11:17:55;5.85;;;2.25;;
66546;SDS011;53400;50.364;14.874;2023-12-29T11:20:30;5.07;;;2.15;;
66546;SDS011;53400;50.364;14.874;2023-12-29T11:22:56;4.65;;;2.30;;
66546;SDS011;53400;50.364;14.874;2023-12-29T11:25:39;4.68;;;2.03;;
66546;SDS011;53400;50.364;14.874;2023-12-29T11:28:12;5.60;;;2.05;;
66546;SDS011;53400;50.364;14.874;2023-12-29T11:30:42;6.15;;;2.38;;
66546;SDS011;53400;50.364;14.874;2023-12-29T11:33:26;4.78;;;2.20;;
66546;SDS011;53400;50.364;14.874;2023-12-29T11:35:58;5.57;;;2.13;;
66546;SDS011;53400;50.364;14.874;2023-12-29T11:38:33;5.90;;;1.83;;
66546;SDS011;53400;50.364;14.874;2023-12-29T11:41:16;4.82;;;2.03;;
66546;SDS011;53400;50.364;14.874;2023-12-29T11:43:55;5.90;;;2.40;;
66546;SDS011;53400;50.364;14.874;2023-12-29T11:46:39;5.57;;;2.40;;
66546;SDS011;53400;50.364;14.874;2023-12-29T11:49:11;4.85;;;2.10;;
66546;SDS011;53400;50.364;14.874;2023-12-29T11:51:39;4.70;;;2.22;;
66546;SDS011;53400;50.364;14.874;2023-12-29T11:54:06;4.40;;;2.13;;
66546;SDS011;53400;50.364;14.874;2023-12-29T11:59:27;5.15;;;2.28;;
66546;SDS011;53400;50.364;14.874;2023-12-29T12:01:55;6.78;;;2.20;;
66546;SDS011;53400;50.364;14.874;2023-12-29T12:04:41;5.95;;;2.20;;
66546;SDS011;53400;50.364;14.874;2023-12-29T12:10:46;4.55;;;1.80;;
66546;SDS011;53400;50.364;14.874;2023-12-29T12:16:10;4.45;;;2.17;;
66546;SDS011;53400;50.364;14.874;2023-12-29T12:19:21;4.60;;;2.00;;
66546;SDS011;53400;50.364;14.874;2023-12-29T12:21:50;4.97;;;2.03;;
66546;SDS011;53400;50.364;14.874;2023-12-29T12:24:26;5.65;;;2.10;;
66546;SDS011;53400;50.364;14.874;2023-12-29T12:26:54;5.65;;;2.35;;
66546;SDS011;53400;50.364;14.874;2023-12-29T12:29:21;4.75;;;2.00;;
66546;SDS011;53400;50.364;14.874;2023-12-29T12:32:03;4.18;;;1.75;;
66546;SDS011;53400;50.364;14.874;2023-12-29T12:35:04;4.25;;;1.90;;
66546;SDS011;53400;50.364;14.874;2023-12-29T12:37:40;4.78;;;1.80;;
66546;SDS011;53400;50.364;14.874;2023-12-29T12:40:12;4.75;;;2.10;;
66546;SDS011;53400;50.364;14.874;2023-12-29T12:42:50;4.47;;;1.70;;
66546;SDS011;53400;50.364;14.874;2023-12-29T12:45:17;4.63;;;1.95;;
66546;SDS011;53400;50.364;14.874;2023-12-29T12:47:50;4.45;;;1.73;;
66546;SDS011;53400;50.364;14.874;2023-12-29T12:50:31;3.83;;;1.80;;
66546;SDS011;53400;50.364;14.874;2023-12-29T12:53:00;3.60;;;1.73;;
66546;SDS011;53400;50.364;14.874;2023-12-29T12:55:41;3.90;;;1.70;;
66546;SDS011;53400;50.364;14.874;2023-12-29T12:58:14;4.53;;;1.90;;
66546;SDS011;53400;50.364;14.874;2023-12-29T13:00:40;4.32;;;1.80;;
66546;SDS011;53400;50.364;14.874;2023-12-29T13:03:07;3.63;;;1.70;;
66546;SDS011;53400;50.364;14.874;2023-12-29T13:05:42;3.83;;;1.80;;
66546;SDS011;53400;50.364;14.874;2023-12-29T13:08:14;3.67;;;1.50;;
66546;SDS011;53400;50.364;14.874;2023-12-29T13:10:44;3.13;;;1.50;;
66546;SDS011;53400;50.364;14.874;2023-12-29T13:13:18;3.47;;;1.40;;
66546;SDS011;53400;50.364;14.874;2023-12-29T13:16:05;2.75;;;1.20;;
66546;SDS011;53400;50.364;14.874;2023-12-29T13:18:34;3.00;;;1.30;;
66546;SDS011;53400;50.364;14.874;2023-12-29T13:21:16;4.38;;;1.58;;
66546;SDS011;53400;50.364;14.874;2023-12-29T13:23:48;4.18;;;1.70;;
66546;SDS011;53400;50.364;14.874;2023-12-29T13:26:14;2.97;;;1.10;;
66546;SDS011;53400;50.364;14.874;2023-12-29T13:28:45;3.13;;;1.27;;
66546;SDS011;53400;50.364;14.874;2023-12-29T13:31:27;2.95;;;1.40;;
66546;SDS011;53400;50.364;14.874;2023-12-29T13:33:56;3.50;;;1.40;;
66546;SDS011;53400;50.364;14.874;2023-12-29T13:36:28;3.25;;;1.40;;
66546;SDS011;53400;50.364;14.874;2023-12-29T13:39:08;4.00;;;1.50;;
66546;SDS011;53400;50.364;14.874;2023-12-29T13:41:43;3.35;;;1.67;;
66546;SDS011;53400;50.364;14.874;2023-12-29T13:44:10;4.13;;;1.73;;
66546;SDS011;53400;50.364;14.874;2023-12-29T13:46:39;3.00;;;1.50;;
66546;SDS011;53400;50.364;14.874;2023-12-29T13:49:07;3.97;;;2.70;;
66546;SDS011;53400;50.364;14.874;2023-12-29T13:51:36;5.63;;;1.60;;
66546;SDS011;53400;50.364;14.874;2023-12-29T13:54:02;3.70;;;1.65;;
66546;SDS011;53400;50.364;14.874;2023-12-29T13:56:34;5.07;;;1.80;;
66546;SDS011;53400;50.364;14.874;2023-12-29T13:59:05;3.40;;;1.40;;
66546;SDS011;53400;50.364;14.874;2023-12-29T14:01:36;4.47;;;1.80;;
66546;SDS011;53400;50.364;14.874;2023-12-29T14:04:23;3.55;;;1.73;;
66546;SDS011;53400;50.364;14.874;2023-12-29T14:06:58;4.88;;;1.88;;
66546;SDS011;53400;50.364;14.874;2023-12-29T14:09:28;5.00;;;2.00;;
66546;SDS011;53400;50.364;14.874;2023-12-29T14:12:09;4.15;;;2.05;;
66546;SDS011;53400;50.364;14.874;2023-12-29T14:14:36;4.72;;;2.25;;
66546;SDS011;53400;50.364;14.874;2023-12-29T14:17:02;5.47;;;1.80;;
66546;SDS011;53400;50.364;14.874;2023-12-29T14:19:34;4.60;;;1.98;;
66546;SDS011;53400;50.364;14.874;2023-12-29T14:22:02;4.32;;;2.03;;
66546;SDS011;53400;50.364;14.874;2023-12-29T14:24:32;5.10;;;2.05;;
66546;SDS011;53400;50.364;14.874;2023-12-29T14:26:58;4.93;;;2.05;;
66546;SDS011;53400;50.364;14.874;2023-12-29T14:29:24;4.75;;;2.00;;
66546;SDS011;53400;50.364;14.874;2023-12-29T14:31:51;4.82;;;2.03;;
66546;SDS011;53400;50.364;14.874;2023-12-29T14:34:20;4.25;;;1.98;;
66546;SDS011;53400;50.364;14.874;2023-12-29T14:36:46;3.95;;;1.95;;
66546;SDS011;53400;50.364;14.874;2023-12-29T14:39:14;4.35;;;1.80;;
66546;SDS011;53400;50.364;14.874;2023-12-29T14:41:43;4.43;;;1.73;;
66546;SDS011;53400;50.364;14.874;2023-12-29T14:44:12;4.78;;;1.70;;
66546;SDS011;53400;50.364;14.874;2023-12-29T14:46:39;4.20;;;1.75;;
66546;SDS011;53400;50.364;14.874;2023-12-29T14:49:05;4.60;;;1.83;;
66546;SDS011;53400;50.364;14.874;2023-12-29T14:51:33;4.25;;;1.50;;
66546;SDS011;53400;50.364;14.874;2023-12-29T14:53:59;4.28;;;1.35;;
66546;SDS011;53400;50.364;14.874;2023-12-29T14:56:27;4.05;;;1.48;;
66546;SDS011;53400;50.364;14.874;2023-12-29T14:58:53;3.85;;;1.60;;
66546;SDS011;53400;50.364;14.874;2023-12-29T15:01:36;4.55;;;1.20;;
66546;SDS011;53400;50.364;14.874;2023-12-29T15:04:05;3.85;;;1.60;;
66546;SDS011;53400;50.364;14.874;2023-12-29T15:06:31;3.78;;;1.42;;
66546;SDS011;53400;50.364;14.874;2023-12-29T15:09:04;3.80;;;1.40;;
66546;SDS011;53400;50.364;14.874;2023-12-29T15:11:37;3.22;;;1.50;;
66546;SDS011;53400;50.364;14.874;2023-12-29T15:14:04;3.35;;;1.52;;